»·PEaware :: N448RA KBFL-KSMX

N448RA :: KBFL-KSMX

FLIGHT INFORMATION

Flight Status: Arrived
Operator: Privately registered:
United States
More flights under this callsign
Pilot: Scott M. (16181)
Aircraft: ROBIN DR-400
(DR40)
More flights by this aircraft type
Origin: KBFL Meadows
United States
Destination: KSMX Santa Maria Pub/Capt Hancock
United States
More flights between these airports :: More routes between these airports
Route:
File this flight plan on PilotEdge
Remarks:
Altitude:
(Current/Filed)
8,500ft
Speed:
(Current/Filed)
160kts
Departed: 18-Jun-18 05:11 PM
Arrived: 18-Jun-18 05:55 PM
Distance/Time
Traveled:
75nm/0:44
Distance/Time
To Go:
Arrived

Flight Plot

Page will automatically refresh every two minutes.


Map Options




Map Legend


Flown Route
Filed Route
Departure Airport
Arrival Airport
Navaid (VOR, NDB)
Fix

Horizontal Profiles

Position Reports

Time Latitude Longitude Heading Altitude Ground
Speed
18-Jun-18 17:01 35.429365 -119.046108 226 493ft 0kts
18-Jun-18 17:02 35.429366 -119.046108 226 493ft 0kts
18-Jun-18 17:03 35.429366 -119.046108 226 493ft 0kts
18-Jun-18 17:04 35.429366 -119.046108 226 493ft 0kts
18-Jun-18 17:05 35.429366 -119.046108 226 493ft 0kts
18-Jun-18 17:06 35.429366 -119.046108 226 493ft 0kts
18-Jun-18 17:07 35.428858 -119.046759 224 490ft 12kts
18-Jun-18 17:08 35.425766 -119.044718 224 479ft 8kts
18-Jun-18 17:09 35.425725 -119.044769 227 479ft 0kts
18-Jun-18 17:10 35.425503 -119.045723 280 476ft 11kts
18-Jun-18 17:11 35.437039 -119.061418 308 967ft 96kts
18-Jun-18 17:12 35.445632 -119.086008 238 1875ft 111kts
18-Jun-18 17:13 35.419465 -119.106948 218 2864ft 112kts
18-Jun-18 17:14 35.402419 -119.137600 254 3458ft 125kts
18-Jun-18 17:15 35.392008 -119.168935 249 4324ft 110kts
18-Jun-18 17:16 35.380460 -119.200195 249 5244ft 109kts
18-Jun-18 17:17 35.367770 -119.234098 249 6240ft 110kts
18-Jun-18 17:18 35.355006 -119.268078 250 7232ft 111kts
18-Jun-18 17:19 35.342100 -119.302460 250 8228ft 112kts
18-Jun-18 17:20 35.327896 -119.340315 249 8488ft 125kts
18-Jun-18 17:21 35.313593 -119.378307 250 8490ft 121kts
18-Jun-18 17:22 35.299588 -119.415460 250 8490ft 121kts
18-Jun-18 17:23 35.287368 -119.447843 249 8490ft 122kts
18-Jun-18 17:24 35.273054 -119.485726 249 8490ft 123kts
18-Jun-18 17:25 35.258736 -119.523576 249 8490ft 123kts
18-Jun-18 17:26 35.244477 -119.561227 249 8499ft 121kts
18-Jun-18 17:27 35.230498 -119.598062 250 8497ft 117kts
18-Jun-18 17:28 35.216495 -119.634883 249 8499ft 121kts
18-Jun-18 17:29 35.202485 -119.671713 249 8501ft 122kts
18-Jun-18 17:30 35.188480 -119.708511 249 8501ft 121kts
18-Jun-18 17:31 35.174177 -119.746063 249 8501ft 122kts
18-Jun-18 17:32 35.159523 -119.784470 249 8574ft 128kts
18-Jun-18 17:33 35.144433 -119.824033 249 8557ft 129kts
18-Jun-18 17:34 35.129268 -119.863662 249 8571ft 127kts
18-Jun-18 17:35 35.114379 -119.902537 249 8555ft 119kts
18-Jun-18 17:36 35.100962 -119.937691 250 7753ft 108kts
18-Jun-18 17:37 35.088297 -119.970829 250 6969ft 113kts
18-Jun-18 17:38 35.074665 -120.006293 250 6575ft 117kts
18-Jun-18 17:39 35.060880 -120.042129 250 6573ft 117kts
18-Jun-18 17:40 35.047030 -120.078120 250 6573ft 117kts
18-Jun-18 17:41 35.033039 -120.114436 250 6500ft 118kts
18-Jun-18 17:42 35.018938 -120.151004 250 6171ft 116kts
18-Jun-18 17:43 35.005336 -120.186256 250 5616ft 115kts
18-Jun-18 17:44 34.991653 -120.221656 250 5021ft 115kts
18-Jun-18 17:45 34.978045 -120.256779 250 4508ft 109kts
18-Jun-18 17:46 34.957994 -120.281914 226 4268ft 106kts
18-Jun-18 17:47 34.935115 -120.301270 224 3844ft 98kts
18-Jun-18 17:48 34.913811 -120.322589 232 3107ft 93kts
18-Jun-18 17:49 34.897160 -120.342624 234 2689ft 87kts
18-Jun-18 17:50 34.882435 -120.363916 246 2314ft 76kts
18-Jun-18 17:51 34.871130 -120.389060 250 2020ft 87kts
18-Jun-18 17:52 34.869196 -120.412829 293 1439ft 67kts
18-Jun-18 17:53 34.880025 -120.430473 310 783ft 65kts
18-Jun-18 17:54 34.892453 -120.445349 311 298ft 58kts
18-Jun-18 17:55 34.897661 -120.450011 358 264ft 0kts
18-Jun-18 17:56 34.899404 -120.451186 328 264ft 8kts
18-Jun-18 17:57 34.900435 -120.450402 85 264ft 0kts
18-Jun-18 17:58 34.900435 -120.450402 85 264ft 0kts
18-Jun-18 17:59 34.900435 -120.450402 85 264ft 0kts
18-Jun-18 18:00 34.900435 -120.450402 85 264ft 0kts

Navigation Log

Ident Type
1. KBFL Airport
2. KSMX Airport